sensor_id;sensor_type;location;lat;lon;timestamp;pressure;altitude;pressure_sealevel;temperature
70415;BMP280;57837;52.064;113.478;2023-06-05T00:00:57;93313.28;;;34.40
70415;BMP280;57837;52.064;113.478;2023-06-05T00:04:00;93304.16;;;32.79
70415;BMP280;57837;52.064;113.478;2023-06-05T00:07:05;93303.06;;;30.42
70415;BMP280;57837;52.064;113.478;2023-06-05T00:10:09;93312.59;;;27.50
70415;BMP280;57837;52.064;113.478;2023-06-05T00:13:14;93319.72;;;28.36
70415;BMP280;57837;52.064;113.478;2023-06-05T00:16:17;93318.47;;;29.53
70415;BMP280;57837;52.064;113.478;2023-06-05T00:19:21;93305.75;;;29.63
70415;BMP280;57837;52.064;113.478;2023-06-05T00:22:29;93328.09;;;27.92
70415;BMP280;57837;52.064;113.478;2023-06-05T00:25:34;93337.50;;;27.55
70415;BMP280;57837;52.064;113.478;2023-06-05T00:28:37;93340.03;;;29.78
70415;BMP280;57837;52.064;113.478;2023-06-05T00:31:45;93332.34;;;31.60
70415;BMP280;57837;52.064;113.478;2023-06-05T00:34:50;93323.69;;;31.86
70415;BMP280;57837;52.064;113.478;2023-06-05T00:37:54;93337.69;;;28.26
70415;BMP280;57837;52.064;113.478;2023-06-05T00:40:58;93337.63;;;26.63
70415;BMP280;57837;52.064;113.478;2023-06-05T00:44:01;93341.22;;;27.04
70415;BMP280;57837;52.064;113.478;2023-06-05T00:47:05;93346.63;;;27.81
70415;BMP280;57837;52.064;113.478;2023-06-05T00:50:10;93336.69;;;29.23
70415;BMP280;57837;52.064;113.478;2023-06-05T00:53:16;93346.53;;;30.77
70415;BMP280;57837;52.064;113.478;2023-06-05T00:56:20;93339.00;;;31.22
70415;BMP280;57837;52.064;113.478;2023-06-05T00:59:26;93349.03;;;29.61
70415;BMP280;57837;52.064;113.478;2023-06-05T01:02:30;93332.81;;;29.48
70415;BMP280;57837;52.064;113.478;2023-06-05T01:05:34;93339.72;;;28.87
70415;BMP280;57837;52.064;113.478;2023-06-05T01:08:40;93342.91;;;30.73
70415;BMP280;57837;52.064;113.478;2023-06-05T01:14:53;93335.75;;;31.12
70415;BMP280;57837;52.064;113.478;2023-06-05T01:18:02;93330.00;;;31.29
70415;BMP280;57837;52.064;113.478;2023-06-05T01:21:12;93330.03;;;31.17
70415;BMP280;57837;52.064;113.478;2023-06-05T01:24:18;93321.75;;;30.65
70415;BMP280;57837;52.064;113.478;2023-06-05T01:27:32;93319.91;;;31.53
70415;BMP280;57837;52.064;113.478;2023-06-05T01:34:08;93305.59;;;32.39
70415;BMP280;57837;52.064;113.478;2023-06-05T01:37:15;93307.81;;;31.52
70415;BMP280;57837;52.064;113.478;2023-06-05T01:40:24;93317.28;;;31.04
70415;BMP280;57837;52.064;113.478;2023-06-05T01:43:30;93316.78;;;30.71
70415;BMP280;57837;52.064;113.478;2023-06-05T01:46:35;93312.72;;;30.35
70415;BMP280;57837;52.064;113.478;2023-06-05T01:49:39;93311.66;;;29.07
70415;BMP280;57837;52.064;113.478;2023-06-05T01:52:45;93311.69;;;29.73
70415;BMP280;57837;52.064;113.478;2023-06-05T01:55:49;93301.25;;;29.32
70415;BMP280;57837;52.064;113.478;2023-06-05T01:58:56;93306.56;;;28.90
70415;BMP280;57837;52.064;113.478;2023-06-05T02:01:59;93295.78;;;29.63
70415;BMP280;57837;52.064;113.478;2023-06-05T02:05:04;93299.81;;;29.53
70415;BMP280;57837;52.064;113.478;2023-06-05T02:08:08;93294.28;;;29.39
70415;BMP280;57837;52.064;113.478;2023-06-05T02:11:13;93292.91;;;29.82
70415;BMP280;57837;52.064;113.478;2023-06-05T02:14:18;93294.19;;;29.81
70415;BMP280;57837;52.064;113.478;2023-06-05T02:17:22;93284.69;;;28.92
70415;BMP280;57837;52.064;113.478;2023-06-05T02:20:28;93284.88;;;29.71
70415;BMP280;57837;52.064;113.478;2023-06-05T02:23:32;93284.16;;;30.98
70415;BMP280;57837;52.064;113.478;2023-06-05T02:26:35;93279.94;;;31.06
70415;BMP280;57837;52.064;113.478;2023-06-05T02:29:39;93289.53;;;31.23
70415;BMP280;57837;52.064;113.478;2023-06-05T02:32:42;93268.34;;;31.27
70415;BMP280;57837;52.064;113.478;2023-06-05T02:35:50;93291.34;;;30.24
70415;BMP280;57837;52.064;113.478;2023-06-05T02:38:54;93283.19;;;30.45
70415;BMP280;57837;52.064;113.478;2023-06-05T02:41:59;93282.97;;;29.94
70415;BMP280;57837;52.064;113.478;2023-06-05T02:45:03;93274.00;;;29.45
70415;BMP280;57837;52.064;113.478;2023-06-05T02:48:08;93288.94;;;28.14
70415;BMP280;57837;52.064;113.478;2023-06-05T02:51:12;93293.69;;;28.35
70415;BMP280;57837;52.064;113.478;2023-06-05T02:54:18;93276.38;;;30.19
70415;BMP280;57837;52.064;113.478;2023-06-05T02:57:22;93260.88;;;28.32
70415;BMP280;57837;52.064;113.478;2023-06-05T03:00:27;93279.03;;;28.45
70415;BMP280;57837;52.064;113.478;2023-06-05T03:03:32;93275.22;;;28.48
70415;BMP280;57837;52.064;113.478;2023-06-05T03:06:36;93267.84;;;28.37
70415;BMP280;57837;52.064;113.478;2023-06-05T03:09:43;93265.81;;;28.78
70415;BMP280;57837;52.064;113.478;2023-06-05T03:12:48;93261.91;;;29.44
70415;BMP280;57837;52.064;113.478;2023-06-05T03:15:52;93267.94;;;30.59
70415;BMP280;57837;52.064;113.478;2023-06-05T03:19:01;93259.63;;;29.51
70415;BMP280;57837;52.064;113.478;2023-06-05T03:22:05;93269.19;;;29.00
70415;BMP280;57837;52.064;113.478;2023-06-05T03:25:11;93260.34;;;28.14
70415;BMP280;57837;52.064;113.478;2023-06-05T03:28:18;93260.16;;;28.01
70415;BMP280;57837;52.064;113.478;2023-06-05T03:31:23;93251.13;;;27.27
70415;BMP280;57837;52.064;113.478;2023-06-05T03:34:26;93251.97;;;27.30
70415;BMP280;57837;52.064;113.478;2023-06-05T03:37:34;93249.28;;;27.78
70415;BMP280;57837;52.064;113.478;2023-06-05T03:40:39;93234.84;;;28.52
70415;BMP280;57837;52.064;113.478;2023-06-05T03:43:46;93236.22;;;28.32
70415;BMP280;57837;52.064;113.478;2023-06-05T03:46:50;93230.66;;;27.68
70415;BMP280;57837;52.064;113.478;2023-06-05T03:49:55;93233.38;;;27.89
70415;BMP280;57837;52.064;113.478;2023-06-05T03:53:00;93229.41;;;27.02
70415;BMP280;57837;52.064;113.478;2023-06-05T03:56:07;93225.81;;;26.97
70415;BMP280;57837;52.064;113.478;2023-06-05T03:59:13;93226.66;;;27.19
70415;BMP280;57837;52.064;113.478;2023-06-05T04:02:28;93211.25;;;26.89
70415;BMP280;57837;52.064;113.478;2023-06-05T04:05:32;93214.69;;;26.07
70415;BMP280;57837;52.064;113.478;2023-06-05T04:08:36;93215.06;;;25.33
70415;BMP280;57837;52.064;113.478;2023-06-05T04:11:42;93213.47;;;25.91
70415;BMP280;57837;52.064;113.478;2023-06-05T04:14:47;93212.72;;;26.54
70415;BMP280;57837;52.064;113.478;2023-06-05T04:17:51;93206.06;;;26.81
70415;BMP280;57837;52.064;113.478;2023-06-05T04:20:56;93196.28;;;27.13
70415;BMP280;57837;52.064;113.478;2023-06-05T04:24:00;93185.63;;;27.32
70415;BMP280;57837;52.064;113.478;2023-06-05T04:27:05;93187.47;;;27.29
70415;BMP280;57837;52.064;113.478;2023-06-05T04:30:10;93183.78;;;27.53
70415;BMP280;57837;52.064;113.478;2023-06-05T04:33:15;93182.03;;;27.08
70415;BMP280;57837;52.064;113.478;2023-06-05T04:36:20;93172.34;;;26.65
70415;BMP280;57837;52.064;113.478;2023-06-05T04:39:24;93174.88;;;27.01
70415;BMP280;57837;52.064;113.478;2023-06-05T04:42:29;93165.38;;;26.88
70415;BMP280;57837;52.064;113.478;2023-06-05T04:45:36;93157.97;;;26.87
70415;BMP280;57837;52.064;113.478;2023-06-05T04:48:40;93151.66;;;26.73
70415;BMP280;57837;52.064;113.478;2023-06-05T04:51:44;93137.81;;;26.65
70415;BMP280;57837;52.064;113.478;2023-06-05T04:54:49;93140.34;;;26.82
70415;BMP280;57837;52.064;113.478;2023-06-05T04:57:53;93149.13;;;27.13
70415;BMP280;57837;52.064;113.478;2023-06-05T05:00:58;93147.69;;;27.41
70415;BMP280;57837;52.064;113.478;2023-06-05T05:04:13;93139.00;;;27.40
70415;BMP280;57837;52.064;113.478;2023-06-05T05:07:17;93133.28;;;27.34
70415;BMP280;57837;52.064;113.478;2023-06-05T05:10:22;93127.19;;;27.62
70415;BMP280;57837;52.064;113.478;2023-06-05T05:13:26;93130.94;;;27.69
70415;BMP280;57837;52.064;113.478;2023-06-05T05:16:30;93123.94;;;27.74
70415;BMP280;57837;52.064;113.478;2023-06-05T05:19:36;93119.91;;;27.63
70415;BMP280;57837;52.064;113.478;2023-06-05T05:22:44;93117.00;;;27.49
70415;BMP280;57837;52.064;113.478;2023-06-05T05:25:48;93108.91;;;27.47
70415;BMP280;57837;52.064;113.478;2023-06-05T05:28:52;93116.81;;;27.67
70415;BMP280;57837;52.064;113.478;2023-06-05T05:31:56;93115.44;;;27.87
70415;BMP280;57837;52.064;113.478;2023-06-05T05:35:00;93105.59;;;27.68
70415;BMP280;57837;52.064;113.478;2023-06-05T05:38:05;93101.34;;;27.44
70415;BMP280;57837;52.064;113.478;2023-06-05T05:41:09;93087.78;;;27.40
70415;BMP280;57837;52.064;113.478;2023-06-05T05:44:13;93104.06;;;27.25
70415;BMP280;57837;52.064;113.478;2023-06-05T05:47:17;93084.78;;;27.05
70415;BMP280;57837;52.064;113.478;2023-06-05T05:50:22;93095.88;;;26.82
70415;BMP280;57837;52.064;113.478;2023-06-05T05:53:26;93100.72;;;26.47
70415;BMP280;57837;52.064;113.478;2023-06-05T05:56:29;93091.94;;;26.45
70415;BMP280;57837;52.064;113.478;2023-06-05T05:59:33;93085.66;;;26.31
70415;BMP280;57837;52.064;113.478;2023-06-05T06:02:41;93074.03;;;26.17
70415;BMP280;57837;52.064;113.478;2023-06-05T06:05:45;93079.31;;;26.07
70415;BMP280;57837;52.064;113.478;2023-06-05T06:08:49;93085.06;;;26.13
70415;BMP280;57837;52.064;113.478;2023-06-05T06:11:53;93081.16;;;26.14
70415;BMP280;57837;52.064;113.478;2023-06-05T06:14:57;93083.97;;;26.16
70415;BMP280;57837;52.064;113.478;2023-06-05T06:18:02;93079.63;;;26.11
70415;BMP280;57837;52.064;113.478;2023-06-05T06:21:05;93088.28;;;26.21
70415;BMP280;57837;52.064;113.478;2023-06-05T06:24:11;93080.75;;;26.27
70415;BMP280;57837;52.064;113.478;2023-06-05T06:27:15;93081.88;;;26.34
70415;BMP280;57837;52.064;113.478;2023-06-05T06:30:36;93059.53;;;26.37
70415;BMP280;57837;52.064;113.478;2023-06-05T06:33:40;93054.03;;;26.06
70415;BMP280;57837;52.064;113.478;2023-06-05T06:36:44;93055.41;;;25.88
70415;BMP280;57837;52.064;113.478;2023-06-05T06:39:49;93048.88;;;26.08
70415;BMP280;57837;52.064;113.478;2023-06-05T06:42:54;93042.88;;;26.27
70415;BMP280;57837;52.064;113.478;2023-06-05T06:46:12;93053.81;;;26.40
70415;BMP280;57837;52.064;113.478;2023-06-05T06:49:16;93044.41;;;26.49
70415;BMP280;57837;52.064;113.478;2023-06-05T06:52:20;93047.78;;;26.50
70415;BMP280;57837;52.064;113.478;2023-06-05T06:55:27;93043.19;;;26.31
70415;BMP280;57837;52.064;113.478;2023-06-05T06:58:31;93038.81;;;26.07
70415;BMP280;57837;52.064;113.478;2023-06-05T07:01:35;93044.69;;;26.24
70415;BMP280;57837;52.064;113.478;2023-06-05T07:04:39;93035.75;;;26.48
70415;BMP280;57837;52.064;113.478;2023-06-05T07:07:47;93038.00;;;26.33
70415;BMP280;57837;52.064;113.478;2023-06-05T07:10:53;93031.13;;;26.01
70415;BMP280;57837;52.064;113.478;2023-06-05T07:13:59;93034.19;;;25.88
70415;BMP280;57837;52.064;113.478;2023-06-05T07:17:02;93033.56;;;25.70
70415;BMP280;57837;52.064;113.478;2023-06-05T07:20:07;93015.34;;;25.48
70415;BMP280;57837;52.064;113.478;2023-06-05T07:23:11;93015.72;;;25.35
70415;BMP280;57837;52.064;113.478;2023-06-05T07:26:15;93009.59;;;25.42
70415;BMP280;57837;52.064;113.478;2023-06-05T07:29:19;92996.03;;;25.38
70415;BMP280;57837;52.064;113.478;2023-06-05T07:32:24;92993.13;;;25.43
70415;BMP280;57837;52.064;113.478;2023-06-05T07:35:28;92985.44;;;25.38
70415;BMP280;57837;52.064;113.478;2023-06-05T07:38:31;92983.97;;;25.17
70415;BMP280;57837;52.064;113.478;2023-06-05T07:41:35;92974.69;;;24.99
70415;BMP280;57837;52.064;113.478;2023-06-05T07:44:39;92982.72;;;24.92
70415;BMP280;57837;52.064;113.478;2023-06-05T07:47:43;92974.94;;;24.94
70415;BMP280;57837;52.064;113.478;2023-06-05T07:50:46;92973.91;;;24.80
70415;BMP280;57837;52.064;113.478;2023-06-05T07:53:50;92974.31;;;24.59
70415;BMP280;57837;52.064;113.478;2023-06-05T07:56:54;92969.72;;;24.42
70415;BMP280;57837;52.064;113.478;2023-06-05T07:59:59;92973.31;;;24.37
70415;BMP280;57837;52.064;113.478;2023-06-05T08:03:14;92971.75;;;24.51
70415;BMP280;57837;52.064;113.478;2023-06-05T08:06:24;92969.22;;;24.70
70415;BMP280;57837;52.064;113.478;2023-06-05T08:09:27;92964.22;;;25.01
70415;BMP280;57837;52.064;113.478;2023-06-05T08:12:31;92962.84;;;25.00
70415;BMP280;57837;52.064;113.478;2023-06-05T08:15:35;92974.91;;;24.67
70415;BMP280;57837;52.064;113.478;2023-06-05T08:18:39;92972.38;;;24.59
70415;BMP280;57837;52.064;113.478;2023-06-05T08:21:43;92969.66;;;24.50
70415;BMP280;57837;52.064;113.478;2023-06-05T08:24:47;92965.72;;;24.24
70415;BMP280;57837;52.064;113.478;2023-06-05T08:27:53;92962.56;;;24.01
70415;BMP280;57837;52.064;113.478;2023-06-05T08:30:57;92960.06;;;23.86
70415;BMP280;57837;52.064;113.478;2023-06-05T08:34:02;92951.75;;;23.89
70415;BMP280;57837;52.064;113.478;2023-06-05T08:37:05;92958.69;;;24.02
70415;BMP280;57837;52.064;113.478;2023-06-05T08:40:10;92952.94;;;24.13
70415;BMP280;57837;52.064;113.478;2023-06-05T08:43:15;92943.81;;;23.72
70415;BMP280;57837;52.064;113.478;2023-06-05T08:46:18;92941.59;;;23.61
70415;BMP280;57837;52.064;113.478;2023-06-05T08:49:24;92938.81;;;23.59
70415;BMP280;57837;52.064;113.478;2023-06-05T08:52:32;92937.38;;;23.41
70415;BMP280;57837;52.064;113.478;2023-06-05T08:55:37;92926.41;;;23.20
70415;BMP280;57837;52.064;113.478;2023-06-05T08:58:41;92953.56;;;23.12
70415;BMP280;57837;52.064;113.478;2023-06-05T09:01:47;92937.16;;;22.49
70415;BMP280;57837;52.064;113.478;2023-06-05T09:04:51;92946.38;;;22.18
70415;BMP280;57837;52.064;113.478;2023-06-05T09:07:55;92946.91;;;22.17
70415;BMP280;57837;52.064;113.478;2023-06-05T09:11:19;92948.47;;;22.27
70415;BMP280;57837;52.064;113.478;2023-06-05T09:14:25;92943.38;;;22.29
70415;BMP280;57837;52.064;113.478;2023-06-05T09:17:29;92934.25;;;22.15
70415;BMP280;57837;52.064;113.478;2023-06-05T09:20:36;92936.06;;;21.97
70415;BMP280;57837;52.064;113.478;2023-06-05T09:23:41;92946.97;;;21.86
70415;BMP280;57837;52.064;113.478;2023-06-05T09:27:02;92938.50;;;21.95
70415;BMP280;57837;52.064;113.478;2023-06-05T09:30:07;92942.41;;;21.94
70415;BMP280;57837;52.064;113.478;2023-06-05T09:33:11;92939.06;;;21.86
70415;BMP280;57837;52.064;113.478;2023-06-05T09:36:18;92948.22;;;21.78
70415;BMP280;57837;52.064;113.478;2023-06-05T09:39:22;92937.69;;;21.78
70415;BMP280;57837;52.064;113.478;2023-06-05T09:42:34;92935.75;;;21.78
70415;BMP280;57837;52.064;113.478;2023-06-05T09:45:42;92943.31;;;21.74
70415;BMP280;57837;52.064;113.478;2023-06-05T09:48:52;92945.03;;;21.64
70415;BMP280;57837;52.064;113.478;2023-06-05T09:52:01;92941.34;;;21.52
70415;BMP280;57837;52.064;113.478;2023-06-05T09:55:07;92939.59;;;21.47
70415;BMP280;57837;52.064;113.478;2023-06-05T09:58:12;92944.16;;;21.46
70415;BMP280;57837;52.064;113.478;2023-06-05T10:01:18;92942.75;;;21.38
70415;BMP280;57837;52.064;113.478;2023-06-05T10:04:27;92945.19;;;21.36
70415;BMP280;57837;52.064;113.478;2023-06-05T10:07:32;92940.47;;;21.34
70415;BMP280;57837;52.064;113.478;2023-06-05T10:10:37;92943.09;;;21.34
70415;BMP280;57837;52.064;113.478;2023-06-05T10:13:42;92939.25;;;21.43
70415;BMP280;57837;52.064;113.478;2023-06-05T10:16:49;92938.53;;;21.42
70415;BMP280;57837;52.064;113.478;2023-06-05T10:19:56;92939.56;;;21.39
70415;BMP280;57837;52.064;113.478;2023-06-05T10:23:01;92943.63;;;21.40
70415;BMP280;57837;52.064;113.478;2023-06-05T10:26:07;92940.47;;;21.49
70415;BMP280;57837;52.064;113.478;2023-06-05T10:38:48;92954.81;;;21.10
70415;BMP280;57837;52.064;113.478;2023-06-05T10:41:51;92954.25;;;20.97
70415;BMP280;57837;52.064;113.478;2023-06-05T10:44:55;92964.56;;;20.87
70415;BMP280;57837;52.064;113.478;2023-06-05T10:47:59;92960.69;;;20.81
70415;BMP280;57837;52.064;113.478;2023-06-05T10:51:32;92955.56;;;20.75
70415;BMP280;57837;52.064;113.478;2023-06-05T11:01:19;92964.25;;;20.55
70415;BMP280;57837;52.064;113.478;2023-06-05T11:04:25;92962.44;;;20.42
70415;BMP280;57837;52.064;113.478;2023-06-05T11:07:29;92973.84;;;20.45
70415;BMP280;57837;52.064;113.478;2023-06-05T11:10:33;92969.84;;;20.51
70415;BMP280;57837;52.064;113.478;2023-06-05T11:13:56;92967.09;;;20.57
70415;BMP280;57837;52.064;113.478;2023-06-05T11:17:30;92967.75;;;20.57
70415;BMP280;57837;52.064;113.478;2023-06-05T11:23:38;92965.63;;;20.48
70415;BMP280;57837;52.064;113.478;2023-06-05T11:26:42;92964.22;;;20.47
70415;BMP280;57837;52.064;113.478;2023-06-05T11:29:46;92956.69;;;20.51
70415;BMP280;57837;52.064;113.478;2023-06-05T11:32:52;92957.56;;;20.46
70415;BMP280;57837;52.064;113.478;2023-06-05T11:36:03;92962.41;;;20.35
70415;BMP280;57837;52.064;113.478;2023-06-05T11:39:07;92962.28;;;20.20
70415;BMP280;57837;52.064;113.478;2023-06-05T11:42:11;92953.16;;;20.13
70415;BMP280;57837;52.064;113.478;2023-06-05T11:45:16;92954.84;;;20.03
70415;BMP280;57837;52.064;113.478;2023-06-05T11:48:20;92955.28;;;19.94
70415;BMP280;57837;52.064;113.478;2023-06-05T11:51:32;92958.78;;;19.89
70415;BMP280;57837;52.064;113.478;2023-06-05T11:54:37;92957.09;;;19.78
70415;BMP280;57837;52.064;113.478;2023-06-05T11:57:49;92960.78;;;19.75
70415;BMP280;57837;52.064;113.478;2023-06-05T12:01:10;92962.19;;;19.76
70415;BMP280;57837;52.064;113.478;2023-06-05T12:04:18;92963.34;;;19.68
70415;BMP280;57837;52.064;113.478;2023-06-05T12:07:31;92958.72;;;19.60
70415;BMP280;57837;52.064;113.478;2023-06-05T12:10:40;92957.44;;;19.54
70415;BMP280;57837;52.064;113.478;2023-06-05T12:13:50;92957.56;;;19.48
70415;BMP280;57837;52.064;113.478;2023-06-05T12:16:54;92957.50;;;19.41
70415;BMP280;57837;52.064;113.478;2023-06-05T12:19:59;92960.25;;;19.35
70415;BMP280;57837;52.064;113.478;2023-06-05T12:23:14;92951.06;;;19.29
70415;BMP280;57837;52.064;113.478;2023-06-05T12:26:20;92950.34;;;19.28
70415;BMP280;57837;52.064;113.478;2023-06-05T12:29:31;92944.72;;;19.24
70415;BMP280;57837;52.064;113.478;2023-06-05T12:32:35;92956.56;;;19.18
70415;BMP280;57837;52.064;113.478;2023-06-05T12:35:39;92959.13;;;19.10
70415;BMP280;57837;52.064;113.478;2023-06-05T12:38:44;92955.91;;;19.04
70415;BMP280;57837;52.064;113.478;2023-06-05T12:41:49;92958.63;;;18.98
70415;BMP280;57837;52.064;113.478;2023-06-05T12:44:53;92959.66;;;18.95
70415;BMP280;57837;52.064;113.478;2023-06-05T12:47:57;92958.22;;;18.94
70415;BMP280;57837;52.064;113.478;2023-06-05T12:51:01;92957.72;;;18.96
70415;BMP280;57837;52.064;113.478;2023-06-05T12:54:05;92961.56;;;18.95
70415;BMP280;57837;52.064;113.478;2023-06-05T12:57:08;92962.06;;;18.93
70415;BMP280;57837;52.064;113.478;2023-06-05T13:00:15;92965.69;;;18.90
70415;BMP280;57837;52.064;113.478;2023-06-05T13:03:19;92968.13;;;18.88
70415;BMP280;57837;52.064;113.478;2023-06-05T13:06:24;92964.78;;;18.88
70415;BMP280;57837;52.064;113.478;2023-06-05T13:09:28;92971.38;;;18.81
70415;BMP280;57837;52.064;113.478;2023-06-05T13:12:32;92967.66;;;18.77
70415;BMP280;57837;52.064;113.478;2023-06-05T13:15:36;92969.88;;;18.73
70415;BMP280;57837;52.064;113.478;2023-06-05T13:18:41;92964.22;;;18.69
70415;BMP280;57837;52.064;113.478;2023-06-05T13:21:45;92964.34;;;18.50
70415;BMP280;57837;52.064;113.478;2023-06-05T13:24:49;92963.09;;;18.38
70415;BMP280;57837;52.064;113.478;2023-06-05T13:27:52;92959.47;;;18.28
70415;BMP280;57837;52.064;113.478;2023-06-05T13:30:56;92961.69;;;18.24
70415;BMP280;57837;52.064;113.478;2023-06-05T13:33:59;92958.88;;;18.22
70415;BMP280;57837;52.064;113.478;2023-06-05T13:37:02;92965.78;;;18.06
70415;BMP280;57837;52.064;113.478;2023-06-05T13:40:16;92959.53;;;17.96
70415;BMP280;57837;52.064;113.478;2023-06-05T13:43:22;92962.03;;;17.88
70415;BMP280;57837;52.064;113.478;2023-06-05T13:46:25;92962.94;;;17.91
70415;BMP280;57837;52.064;113.478;2023-06-05T13:49:31;92961.25;;;17.93
70415;BMP280;57837;52.064;113.478;2023-06-05T13:52:35;92955.22;;;17.98
70415;BMP280;57837;52.064;113.478;2023-06-05T13:55:39;92947.56;;;18.00
70415;BMP280;57837;52.064;113.478;2023-06-05T13:58:43;92945.31;;;17.91
70415;BMP280;57837;52.064;113.478;2023-06-05T14:01:47;92949.38;;;17.92
70415;BMP280;57837;52.064;113.478;2023-06-05T14:04:51;92958.50;;;17.86
70415;BMP280;57837;52.064;113.478;2023-06-05T14:07:56;92955.47;;;17.82
70415;BMP280;57837;52.064;113.478;2023-06-05T14:11:00;92945.78;;;17.77
70415;BMP280;57837;52.064;113.478;2023-06-05T14:14:04;92946.00;;;17.79
70415;BMP280;57837;52.064;113.478;2023-06-05T14:17:09;92937.06;;;17.87
70415;BMP280;57837;52.064;113.478;2023-06-05T14:20:13;92933.44;;;17.90
70415;BMP280;57837;52.064;113.478;2023-06-05T14:23:16;92938.59;;;17.96
70415;BMP280;57837;52.064;113.478;2023-06-05T14:26:20;92937.09;;;18.00
70415;BMP280;57837;52.064;113.478;2023-06-05T14:29:25;92941.22;;;17.96
70415;BMP280;57837;52.064;113.478;2023-06-05T14:32:29;92932.94;;;17.92
70415;BMP280;57837;52.064;113.478;2023-06-05T14:35:33;92934.16;;;17.91
70415;BMP280;57837;52.064;113.478;2023-06-05T14:38:37;92933.25;;;17.88
70415;BMP280;57837;52.064;113.478;2023-06-05T14:41:40;92926.59;;;17.87
70415;BMP280;57837;52.064;113.478;2023-06-05T14:44:45;92921.50;;;17.63
70415;BMP280;57837;52.064;113.478;2023-06-05T14:47:49;92921.13;;;17.40
70415;BMP280;57837;52.064;113.478;2023-06-05T14:50:54;92914.97;;;17.38
70415;BMP280;57837;52.064;113.478;2023-06-05T14:53:59;92916.59;;;17.41
70415;BMP280;57837;52.064;113.478;2023-06-05T14:57:03;92916.09;;;17.42
70415;BMP280;57837;52.064;113.478;2023-06-05T15:00:07;92919.19;;;17.41
70415;BMP280;57837;52.064;113.478;2023-06-05T15:03:11;92917.91;;;17.47
70415;BMP280;57837;52.064;113.478;2023-06-05T15:06:16;92902.53;;;17.44
70415;BMP280;57837;52.064;113.478;2023-06-05T15:09:26;92904.31;;;17.36
70415;BMP280;57837;52.064;113.478;2023-06-05T15:12:31;92904.38;;;17.30
70415;BMP280;57837;52.064;113.478;2023-06-05T15:15:35;92897.66;;;17.35
70415;BMP280;57837;52.064;113.478;2023-06-05T15:18:39;92882.94;;;17.32
70415;BMP280;57837;52.064;113.478;2023-06-05T15:21:42;92890.06;;;17.31
70415;BMP280;57837;52.064;113.478;2023-06-05T15:24:47;92875.88;;;17.26
70415;BMP280;57837;52.064;113.478;2023-06-05T15:27:51;92879.09;;;17.19
70415;BMP280;57837;52.064;113.478;2023-06-05T15:30:54;92872.44;;;17.18
70415;BMP280;57837;52.064;113.478;2023-06-05T15:33:58;92869.00;;;17.10
70415;BMP280;57837;52.064;113.478;2023-06-05T15:37:03;92870.91;;;17.10
70415;BMP280;57837;52.064;113.478;2023-06-05T15:40:08;92869.56;;;17.03
70415;BMP280;57837;52.064;113.478;2023-06-05T15:43:12;92855.63;;;16.95
70415;BMP280;57837;52.064;113.478;2023-06-05T15:46:16;92864.88;;;16.96
70415;BMP280;57837;52.064;113.478;2023-06-05T15:49:20;92857.91;;;17.04
70415;BMP280;57837;52.064;113.478;2023-06-05T15:52:24;92854.34;;;17.02
70415;BMP280;57837;52.064;113.478;2023-06-05T15:55:29;92849.78;;;16.89
70415;BMP280;57837;52.064;113.478;2023-06-05T15:58:32;92838.22;;;16.85
70415;BMP280;57837;52.064;113.478;2023-06-05T16:01:36;92828.88;;;16.89
70415;BMP280;57837;52.064;113.478;2023-06-05T16:04:39;92830.41;;;16.98
70415;BMP280;57837;52.064;113.478;2023-06-05T16:07:43;92830.75;;;17.07
70415;BMP280;57837;52.064;113.478;2023-06-05T16:10:47;92825.72;;;17.09
70415;BMP280;57837;52.064;113.478;2023-06-05T16:13:51;92821.00;;;17.08
70415;BMP280;57837;52.064;113.478;2023-06-05T16:16:54;92814.94;;;17.00
70415;BMP280;57837;52.064;113.478;2023-06-05T16:19:58;92815.19;;;16.96
70415;BMP280;57837;52.064;113.478;2023-06-05T16:23:02;92804.94;;;16.85
70415;BMP280;57837;52.064;113.478;2023-06-05T16:26:06;92808.03;;;16.84
70415;BMP280;57837;52.064;113.478;2023-06-05T16:29:10;92793.59;;;16.64
70415;BMP280;57837;52.064;113.478;2023-06-05T16:32:14;92780.88;;;16.55
70415;BMP280;57837;52.064;113.478;2023-06-05T16:35:17;92792.28;;;16.52
70415;BMP280;57837;52.064;113.478;2023-06-05T16:38:23;92780.78;;;16.42
70415;BMP280;57837;52.064;113.478;2023-06-05T16:41:26;92771.31;;;16.20
70415;BMP280;57837;52.064;113.478;2023-06-05T16:44:31;92774.06;;;16.09
70415;BMP280;57837;52.064;113.478;2023-06-05T16:47:35;92770.03;;;16.08
70415;BMP280;57837;52.064;113.478;2023-06-05T16:50:39;92761.72;;;16.09
70415;BMP280;57837;52.064;113.478;2023-06-05T16:53:46;92744.78;;;16.16
70415;BMP280;57837;52.064;113.478;2023-06-05T16:56:50;92734.69;;;16.25
70415;BMP280;57837;52.064;113.478;2023-06-05T16:59:54;92731.53;;;16.32
70415;BMP280;57837;52.064;113.478;2023-06-05T17:02:59;92732.81;;;16.39
70415;BMP280;57837;52.064;113.478;2023-06-05T17:06:03;92724.22;;;16.44
70415;BMP280;57837;52.064;113.478;2023-06-05T17:09:07;92726.28;;;16.51
70415;BMP280;57837;52.064;113.478;2023-06-05T17:12:11;92715.09;;;16.51
70415;BMP280;57837;52.064;113.478;2023-06-05T17:15:14;92713.91;;;16.52
70415;BMP280;57837;52.064;113.478;2023-06-05T17:18:19;92703.69;;;16.54
70415;BMP280;57837;52.064;113.478;2023-06-05T17:21:23;92692.53;;;16.53
70415;BMP280;57837;52.064;113.478;2023-06-05T17:24:27;92680.16;;;16.54
70415;BMP280;57837;52.064;113.478;2023-06-05T17:27:31;92684.69;;;16.53
70415;BMP280;57837;52.064;113.478;2023-06-05T17:30:35;92680.44;;;16.50
70415;BMP280;57837;52.064;113.478;2023-06-05T17:33:39;92680.19;;;16.35
70415;BMP280;57837;52.064;113.478;2023-06-05T17:36:42;92676.47;;;16.30
70415;BMP280;57837;52.064;113.478;2023-06-05T17:39:45;92662.97;;;16.26
70415;BMP280;57837;52.064;113.478;2023-06-05T17:42:48;92658.53;;;16.21